Latest METARs, TAFs and NOTAMs for EGLF


---------------------------------------------------------------------------
	(OBSERVATIONS)
EGLF 171350Z 21013KT 9999 FEW018 SCT025 13/08 Q1014=
EGLF 171320Z 21011KT 9999 FEW025 13/08 Q1014=
EGLF 171250Z 21010KT 160V240 9999 FEW026 14/08 Q1014=
EGLF 171220Z 20013KT 170V230 CAVOK 13/07 Q1014=
EGLF 171150Z 20015KT 9999 FEW024 12/07 Q1014=
EGLF 171120Z 19013KT 160V220 CAVOK 12/06 Q1014=
---------------------------------------------------------------------------
	(FC)
TAF EGLF 171356Z 1715/1720 20010KT 9999 FEW018
     PROB30 TEMPO 1715/1720 BKN014=
---------------------------------------------------------------------------
	(TERMINAL AREA FORECAST)
EGLF 171055Z 1712/1720 20010KT 9999 FEW018
    TEMPO 1714/1720 BKN014=
---------------------------------------------------------------------------
	(NOTAMS)


EGLF C0615/19 ESSENTIAL FLIGHT CALIBRATION OF ILS RWY 06/24 EQUIPMENT
    MAY RESULT IN SOME DELAY TO INBOUND AIRCRAFT, ESPECIALLY
    WHEN CALIBRATING THE ILS OPPOSITE TO THE DECLARED RUNWAY
    IN USE. 0700-2200, 03 APR 07:00 2019 UNTIL 04 APR 22:00 2019.
    CREATED: 04 FEB 16:35 2019

EGLF C0673/19 DUE WIP BLUE EDGE LIGHTS ON WHISKEY TAXIWAY UNAVAILABLE.
    0700-2200, 07 FEB 15:02 2019 UNTIL 08 MAR 22:00 2019. CREATED:
    07 FEB 15:03 2019

EGLF C0703/19 TWY ZULU CLOSED TO AIRCRAFT DURING THE HOURS OF
    DARKNESS OR DURING PERIODS OF LVP. 08 FEB 18:05 2019 UNTIL
    08 MAR 22:00 2019. CREATED: 08 FEB 18:06 2019

EGLF C0786/19 CRANE OPR AT PSN 511631N 0004823W (FARNBOROUGH)
    MAX HEIGHT 180FT AGL 453FT AMSL. 14 FEB 07:00 2019 UNTIL
    19 FEB 18:00 2019. CREATED: 13 FEB 10:14 2019

EGLF C6505/18 AMEND FLIGHT PROCEDURES (PARAGRAPH 2(E)(I)(1) TABLE):
    ROW 1 AMEND VIA COLUMN TO READ Q63/M183/Q295/M197 AMEND ROUTE
    COLUMN TO READ CPT - Q63/M183/Q295/M197 ROW 2 IN ROUTE COLUMN
    AMEND DVR 4 DEPARTURE ROW TO READ: GWC - SFD - Y803 - LYD
    - M189 - DVR - L9/L10 AIP AD 2.EGLF-2.22 REFERS. 06 DEC 00:00
    2018 UNTIL PERM. CREATED: 26 NOV 20:22 2018

---------------------------------------------------------------------------